sensor_id;sensor_type;location;lat;lon;timestamp;temperature;humidity
27544;DHT22;17996;51.056;3.656;2023-07-08T00:00:54;22.60;93.40
27544;DHT22;17996;51.056;3.656;2023-07-08T00:03:21;22.60;93.80
27544;DHT22;17996;51.056;3.656;2023-07-08T00:05:48;22.60;93.70
27544;DHT22;17996;51.056;3.656;2023-07-08T00:08:17;22.60;93.80
27544;DHT22;17996;51.056;3.656;2023-07-08T00:10:44;22.60;93.80
27544;DHT22;17996;51.056;3.656;2023-07-08T00:13:11;22.50;93.90
27544;DHT22;17996;51.056;3.656;2023-07-08T00:15:37;22.50;93.90
27544;DHT22;17996;51.056;3.656;2023-07-08T00:18:15;22.50;93.80
27544;DHT22;17996;51.056;3.656;2023-07-08T00:20:47;22.50;94.00
27544;DHT22;17996;51.056;3.656;2023-07-08T00:23:14;22.40;94.00
27544;DHT22;17996;51.056;3.656;2023-07-08T00:25:40;22.40;93.80
27544;DHT22;17996;51.056;3.656;2023-07-08T00:28:13;22.40;93.90
27544;DHT22;17996;51.056;3.656;2023-07-08T00:30:42;22.30;94.10
27544;DHT22;17996;51.056;3.656;2023-07-08T00:33:10;22.30;94.10
27544;DHT22;17996;51.056;3.656;2023-07-08T00:35:44;22.30;94.00
27544;DHT22;17996;51.056;3.656;2023-07-08T00:38:25;22.30;94.30
27544;DHT22;17996;51.056;3.656;2023-07-08T00:51:39;22.10;94.10
27544;DHT22;17996;51.056;3.656;2023-07-08T00:54:10;22.10;94.40
27544;DHT22;17996;51.056;3.656;2023-07-08T00:56:44;22.10;94.20
27544;DHT22;17996;51.056;3.656;2023-07-08T01:01:45;22.00;94.00
27544;DHT22;17996;51.056;3.656;2023-07-08T01:04:43;22.00;94.20
27544;DHT22;17996;51.056;3.656;2023-07-08T01:07:11;22.00;94.50
27544;DHT22;17996;51.056;3.656;2023-07-08T01:09:43;21.90;94.60
27544;DHT22;17996;51.056;3.656;2023-07-08T01:12:17;21.90;94.40
27544;DHT22;17996;51.056;3.656;2023-07-08T01:14:45;21.90;94.80
27544;DHT22;17996;51.056;3.656;2023-07-08T01:17:14;21.90;94.80
27544;DHT22;17996;51.056;3.656;2023-07-08T01:19:41;21.80;94.90
27544;DHT22;17996;51.056;3.656;2023-07-08T01:22:08;21.80;95.00
27544;DHT22;17996;51.056;3.656;2023-07-08T01:24:37;21.70;95.10
27544;DHT22;17996;51.056;3.656;2023-07-08T01:27:05;21.70;95.30
27544;DHT22;17996;51.056;3.656;2023-07-08T01:29:32;21.70;95.40
27544;DHT22;17996;51.056;3.656;2023-07-08T01:31:59;21.70;95.80
27544;DHT22;17996;51.056;3.656;2023-07-08T01:34:28;21.70;95.70
27544;DHT22;17996;51.056;3.656;2023-07-08T01:36:55;21.60;95.60
27544;DHT22;17996;51.056;3.656;2023-07-08T01:39:24;21.60;95.70
27544;DHT22;17996;51.056;3.656;2023-07-08T01:41:52;21.60;95.70
27544;DHT22;17996;51.056;3.656;2023-07-08T01:44:34;21.60;96.00
27544;DHT22;17996;51.056;3.656;2023-07-08T01:47:10;21.50;96.00
27544;DHT22;17996;51.056;3.656;2023-07-08T01:49:38;21.50;96.20
27544;DHT22;17996;51.056;3.656;2023-07-08T01:52:06;21.50;96.40
27544;DHT22;17996;51.056;3.656;2023-07-08T01:54:32;21.40;96.50
27544;DHT22;17996;51.056;3.656;2023-07-08T01:56:58;21.40;96.60
27544;DHT22;17996;51.056;3.656;2023-07-08T01:59:23;21.40;96.50
27544;DHT22;17996;51.056;3.656;2023-07-08T02:01:50;21.40;96.90
27544;DHT22;17996;51.056;3.656;2023-07-08T02:04:23;21.30;97.00
27544;DHT22;17996;51.056;3.656;2023-07-08T02:06:58;21.30;97.00
27544;DHT22;17996;51.056;3.656;2023-07-08T02:09:25;21.30;97.30
27544;DHT22;17996;51.056;3.656;2023-07-08T02:11:52;21.20;97.20
27544;DHT22;17996;51.056;3.656;2023-07-08T02:14:18;21.20;97.10
27544;DHT22;17996;51.056;3.656;2023-07-08T02:16:43;21.20;96.80
27544;DHT22;17996;51.056;3.656;2023-07-08T02:19:10;21.20;97.00
27544;DHT22;17996;51.056;3.656;2023-07-08T02:21:37;21.20;96.70
27544;DHT22;17996;51.056;3.656;2023-07-08T02:24:04;21.10;96.80
27544;DHT22;17996;51.056;3.656;2023-07-08T02:26:30;21.10;96.90
27544;DHT22;17996;51.056;3.656;2023-07-08T02:28:58;21.10;96.80
27544;DHT22;17996;51.056;3.656;2023-07-08T02:31:24;21.10;96.80
27544;DHT22;17996;51.056;3.656;2023-07-08T02:33:51;21.00;97.00
27544;DHT22;17996;51.056;3.656;2023-07-08T02:36:16;21.00;97.00
27544;DHT22;17996;51.056;3.656;2023-07-08T02:38:42;21.00;97.50
27544;DHT22;17996;51.056;3.656;2023-07-08T02:41:08;21.00;97.40
27544;DHT22;17996;51.056;3.656;2023-07-08T02:43:34;21.00;97.50
27544;DHT22;17996;51.056;3.656;2023-07-08T02:46:00;21.00;97.70
27544;DHT22;17996;51.056;3.656;2023-07-08T02:48:26;21.00;98.00
27544;DHT22;17996;51.056;3.656;2023-07-08T02:51:02;21.00;98.00
27544;DHT22;17996;51.056;3.656;2023-07-08T02:53:27;21.00;97.80
27544;DHT22;17996;51.056;3.656;2023-07-08T02:55:54;20.90;97.90
27544;DHT22;17996;51.056;3.656;2023-07-08T02:58:20;20.90;98.10
27544;DHT22;17996;51.056;3.656;2023-07-08T03:00:51;20.90;98.10
27544;DHT22;17996;51.056;3.656;2023-07-08T03:03:17;20.90;98.30
27544;DHT22;17996;51.056;3.656;2023-07-08T03:05:44;20.90;98.50
27544;DHT22;17996;51.056;3.656;2023-07-08T03:08:09;20.80;98.40
27544;DHT22;17996;51.056;3.656;2023-07-08T03:10:35;20.80;98.60
27544;DHT22;17996;51.056;3.656;2023-07-08T03:13:00;20.80;98.80
27544;DHT22;17996;51.056;3.656;2023-07-08T03:15:26;20.80;99.00
27544;DHT22;17996;51.056;3.656;2023-07-08T03:17:52;20.80;99.00
27544;DHT22;17996;51.056;3.656;2023-07-08T03:20:24;20.70;98.90
27544;DHT22;17996;51.056;3.656;2023-07-08T03:22:49;20.70;99.30
27544;DHT22;17996;51.056;3.656;2023-07-08T03:25:15;20.70;99.10
27544;DHT22;17996;51.056;3.656;2023-07-08T03:27:40;20.60;99.10
27544;DHT22;17996;51.056;3.656;2023-07-08T03:30:09;20.70;99.60
27544;DHT22;17996;51.056;3.656;2023-07-08T03:32:35;20.60;99.30
27544;DHT22;17996;51.056;3.656;2023-07-08T03:35:00;20.60;99.40
27544;DHT22;17996;51.056;3.656;2023-07-08T03:37:26;20.60;99.60
27544;DHT22;17996;51.056;3.656;2023-07-08T03:39:52;20.60;99.80
27544;DHT22;17996;51.056;3.656;2023-07-08T03:42:18;20.60;99.80
27544;DHT22;17996;51.056;3.656;2023-07-08T03:44:43;20.50;99.90
27544;DHT22;17996;51.056;3.656;2023-07-08T03:47:09;20.50;99.90
27544;DHT22;17996;51.056;3.656;2023-07-08T03:49:35;20.50;99.80
27544;DHT22;17996;51.056;3.656;2023-07-08T03:52:01;20.50;99.80
27544;DHT22;17996;51.056;3.656;2023-07-08T03:54:27;20.50;99.90
27544;DHT22;17996;51.056;3.656;2023-07-08T03:56:53;20.50;99.90
27544;DHT22;17996;51.056;3.656;2023-07-08T03:59:19;20.50;99.90
27544;DHT22;17996;51.056;3.656;2023-07-08T04:01:44;20.40;99.90
27544;DHT22;17996;51.056;3.656;2023-07-08T04:04:13;20.40;99.90
27544;DHT22;17996;51.056;3.656;2023-07-08T04:06:40;20.40;99.90
27544;DHT22;17996;51.056;3.656;2023-07-08T04:09:05;20.40;99.90
27544;DHT22;17996;51.056;3.656;2023-07-08T04:11:32;20.40;99.90
27544;DHT22;17996;51.056;3.656;2023-07-08T04:13:58;20.40;99.90
27544;DHT22;17996;51.056;3.656;2023-07-08T04:16:25;20.40;99.90
27544;DHT22;17996;51.056;3.656;2023-07-08T04:18:55;20.40;99.90
27544;DHT22;17996;51.056;3.656;2023-07-08T04:21:24;20.50;99.90
27544;DHT22;17996;51.056;3.656;2023-07-08T04:23:52;20.40;99.90
27544;DHT22;17996;51.056;3.656;2023-07-08T04:26:18;20.40;99.90
27544;DHT22;17996;51.056;3.656;2023-07-08T04:28:44;20.40;99.90
27544;DHT22;17996;51.056;3.656;2023-07-08T04:31:10;20.40;99.90
27544;DHT22;17996;51.056;3.656;2023-07-08T04:33:36;20.40;99.90
27544;DHT22;17996;51.056;3.656;2023-07-08T04:36:02;20.40;99.90
27544;DHT22;17996;51.056;3.656;2023-07-08T04:38:28;20.40;99.90
27544;DHT22;17996;51.056;3.656;2023-07-08T04:40:54;20.30;99.90
27544;DHT22;17996;51.056;3.656;2023-07-08T04:43:21;20.20;99.90
27544;DHT22;17996;51.056;3.656;2023-07-08T04:45:51;20.20;99.90
27544;DHT22;17996;51.056;3.656;2023-07-08T04:48:20;20.20;99.90
27544;DHT22;17996;51.056;3.656;2023-07-08T04:50:51;20.30;99.90
27544;DHT22;17996;51.056;3.656;2023-07-08T04:53:18;20.30;99.90
27544;DHT22;17996;51.056;3.656;2023-07-08T04:55:49;20.40;99.90
27544;DHT22;17996;51.056;3.656;2023-07-08T04:58:16;20.40;99.90
27544;DHT22;17996;51.056;3.656;2023-07-08T05:00:42;20.40;99.90
27544;DHT22;17996;51.056;3.656;2023-07-08T05:03:07;20.50;99.90
27544;DHT22;17996;51.056;3.656;2023-07-08T05:05:33;20.50;99.90
27544;DHT22;17996;51.056;3.656;2023-07-08T05:07:58;20.50;99.90
27544;DHT22;17996;51.056;3.656;2023-07-08T05:10:24;20.50;99.90
27544;DHT22;17996;51.056;3.656;2023-07-08T05:12:50;20.50;99.90
27544;DHT22;17996;51.056;3.656;2023-07-08T05:15:16;20.50;99.90
27544;DHT22;17996;51.056;3.656;2023-07-08T05:17:42;20.60;99.90
27544;DHT22;17996;51.056;3.656;2023-07-08T05:20:10;20.60;99.90
27544;DHT22;17996;51.056;3.656;2023-07-08T05:22:36;20.70;99.90
27544;DHT22;17996;51.056;3.656;2023-07-08T05:25:02;20.70;99.90
27544;DHT22;17996;51.056;3.656;2023-07-08T05:27:29;20.70;99.90
27544;DHT22;17996;51.056;3.656;2023-07-08T05:29:57;20.80;99.90
27544;DHT22;17996;51.056;3.656;2023-07-08T05:32:23;20.80;99.90
27544;DHT22;17996;51.056;3.656;2023-07-08T05:34:50;20.80;99.90
27544;DHT22;17996;51.056;3.656;2023-07-08T05:37:15;20.80;99.90
27544;DHT22;17996;51.056;3.656;2023-07-08T05:39:45;20.90;99.90
27544;DHT22;17996;51.056;3.656;2023-07-08T05:42:11;20.90;99.90
27544;DHT22;17996;51.056;3.656;2023-07-08T05:44:37;20.90;99.90
27544;DHT22;17996;51.056;3.656;2023-07-08T05:47:03;20.90;99.90
27544;DHT22;17996;51.056;3.656;2023-07-08T05:49:29;21.00;99.90
27544;DHT22;17996;51.056;3.656;2023-07-08T05:51:54;21.00;99.90
27544;DHT22;17996;51.056;3.656;2023-07-08T05:54:26;21.10;99.90
27544;DHT22;17996;51.056;3.656;2023-07-08T05:56:52;21.10;99.90
27544;DHT22;17996;51.056;3.656;2023-07-08T05:59:19;21.10;99.90
27544;DHT22;17996;51.056;3.656;2023-07-08T06:01:46;21.20;99.90
27544;DHT22;17996;51.056;3.656;2023-07-08T06:04:12;21.20;99.90
27544;DHT22;17996;51.056;3.656;2023-07-08T06:06:37;21.30;99.90
27544;DHT22;17996;51.056;3.656;2023-07-08T06:09:03;21.30;99.90
27544;DHT22;17996;51.056;3.656;2023-07-08T06:11:30;21.30;99.90
27544;DHT22;17996;51.056;3.656;2023-07-08T06:13:56;21.40;99.90
27544;DHT22;17996;51.056;3.656;2023-07-08T06:16:22;21.40;99.90
27544;DHT22;17996;51.056;3.656;2023-07-08T06:18:47;21.50;99.90
27544;DHT22;17996;51.056;3.656;2023-07-08T06:21:13;21.50;99.90
27544;DHT22;17996;51.056;3.656;2023-07-08T06:23:39;21.60;99.90
27544;DHT22;17996;51.056;3.656;2023-07-08T06:26:04;21.60;99.90
27544;DHT22;17996;51.056;3.656;2023-07-08T06:28:30;21.70;99.90
27544;DHT22;17996;51.056;3.656;2023-07-08T06:30:55;21.70;99.90
27544;DHT22;17996;51.056;3.656;2023-07-08T06:33:21;21.70;99.90
27544;DHT22;17996;51.056;3.656;2023-07-08T06:35:47;21.80;99.90
27544;DHT22;17996;51.056;3.656;2023-07-08T06:38:12;21.90;99.90
27544;DHT22;17996;51.056;3.656;2023-07-08T06:40:38;21.90;99.90
27544;DHT22;17996;51.056;3.656;2023-07-08T06:43:04;21.90;99.90
27544;DHT22;17996;51.056;3.656;2023-07-08T06:45:30;22.00;99.90
27544;DHT22;17996;51.056;3.656;2023-07-08T06:47:55;22.00;99.90
27544;DHT22;17996;51.056;3.656;2023-07-08T06:50:21;22.10;99.90
27544;DHT22;17996;51.056;3.656;2023-07-08T06:52:47;22.20;99.90
27544;DHT22;17996;51.056;3.656;2023-07-08T06:55:12;22.20;99.90
27544;DHT22;17996;51.056;3.656;2023-07-08T06:57:38;22.30;99.90
27544;DHT22;17996;51.056;3.656;2023-07-08T07:00:09;22.40;99.90
27544;DHT22;17996;51.056;3.656;2023-07-08T07:02:35;22.40;99.90
27544;DHT22;17996;51.056;3.656;2023-07-08T07:05:02;22.40;99.90
27544;DHT22;17996;51.056;3.656;2023-07-08T07:07:28;22.50;99.90
27544;DHT22;17996;51.056;3.656;2023-07-08T07:09:54;22.50;99.90
27544;DHT22;17996;51.056;3.656;2023-07-08T07:12:20;22.50;99.90
27544;DHT22;17996;51.056;3.656;2023-07-08T07:14:45;22.60;99.90
27544;DHT22;17996;51.056;3.656;2023-07-08T07:17:11;22.70;99.90
27544;DHT22;17996;51.056;3.656;2023-07-08T07:19:37;22.70;99.90
27544;DHT22;17996;51.056;3.656;2023-07-08T07:22:03;22.70;99.90
27544;DHT22;17996;51.056;3.656;2023-07-08T07:24:29;22.80;99.90
27544;DHT22;17996;51.056;3.656;2023-07-08T07:26:57;22.90;99.90
27544;DHT22;17996;51.056;3.656;2023-07-08T07:29:23;22.90;99.90
27544;DHT22;17996;51.056;3.656;2023-07-08T07:31:50;23.00;99.90
27544;DHT22;17996;51.056;3.656;2023-07-08T07:34:17;23.00;99.90
27544;DHT22;17996;51.056;3.656;2023-07-08T07:36:42;23.10;99.90
27544;DHT22;17996;51.056;3.656;2023-07-08T07:39:09;23.10;99.90
27544;DHT22;17996;51.056;3.656;2023-07-08T07:41:37;23.20;99.90
27544;DHT22;17996;51.056;3.656;2023-07-08T07:44:05;23.30;99.90
27544;DHT22;17996;51.056;3.656;2023-07-08T07:46:31;23.30;99.90
27544;DHT22;17996;51.056;3.656;2023-07-08T07:48:57;23.40;99.90
27544;DHT22;17996;51.056;3.656;2023-07-08T07:51:25;23.40;99.90
27544;DHT22;17996;51.056;3.656;2023-07-08T07:53:52;23.60;99.90
27544;DHT22;17996;51.056;3.656;2023-07-08T07:56:19;23.60;99.90
27544;DHT22;17996;51.056;3.656;2023-07-08T07:58:45;23.70;99.90
27544;DHT22;17996;51.056;3.656;2023-07-08T08:01:11;23.70;99.90
27544;DHT22;17996;51.056;3.656;2023-07-08T08:03:38;23.70;99.90
27544;DHT22;17996;51.056;3.656;2023-07-08T08:06:04;23.80;99.90
27544;DHT22;17996;51.056;3.656;2023-07-08T08:08:30;23.80;99.90
27544;DHT22;17996;51.056;3.656;2023-07-08T08:10:57;23.90;99.90
27544;DHT22;17996;51.056;3.656;2023-07-08T08:13:22;24.00;99.90
27544;DHT22;17996;51.056;3.656;2023-07-08T08:15:48;24.00;99.90
27544;DHT22;17996;51.056;3.656;2023-07-08T08:18:14;24.10;99.90
27544;DHT22;17996;51.056;3.656;2023-07-08T08:20:39;24.20;99.90
27544;DHT22;17996;51.056;3.656;2023-07-08T08:23:06;24.20;99.90
27544;DHT22;17996;51.056;3.656;2023-07-08T08:25:32;24.20;99.90
27544;DHT22;17996;51.056;3.656;2023-07-08T08:27:59;24.30;99.90
27544;DHT22;17996;51.056;3.656;2023-07-08T08:30:24;24.30;99.90
27544;DHT22;17996;51.056;3.656;2023-07-08T08:32:50;24.40;99.90
27544;DHT22;17996;51.056;3.656;2023-07-08T08:35:15;24.50;99.90
27544;DHT22;17996;51.056;3.656;2023-07-08T08:37:41;24.50;99.90
27544;DHT22;17996;51.056;3.656;2023-07-08T08:40:17;24.60;99.50
27544;DHT22;17996;51.056;3.656;2023-07-08T08:42:46;24.60;99.50
27544;DHT22;17996;51.056;3.656;2023-07-08T08:45:17;24.70;99.50
27544;DHT22;17996;51.056;3.656;2023-07-08T08:47:49;24.80;99.60
27544;DHT22;17996;51.056;3.656;2023-07-08T08:50:35;24.80;99.80
27544;DHT22;17996;51.056;3.656;2023-07-08T08:53:06;24.90;99.10
27544;DHT22;17996;51.056;3.656;2023-07-08T08:55:34;25.00;99.40
27544;DHT22;17996;51.056;3.656;2023-07-08T09:00:58;25.10;99.60
27544;DHT22;17996;51.056;3.656;2023-07-08T09:03:45;25.10;99.20
27544;DHT22;17996;51.056;3.656;2023-07-08T09:06:33;25.20;98.80
27544;DHT22;17996;51.056;3.656;2023-07-08T09:09:21;25.30;98.80
27544;DHT22;17996;51.056;3.656;2023-07-08T09:12:06;25.40;98.00
27544;DHT22;17996;51.056;3.656;2023-07-08T09:14:37;25.50;98.50
27544;DHT22;17996;51.056;3.656;2023-07-08T09:17:17;25.50;98.50
27544;DHT22;17996;51.056;3.656;2023-07-08T09:22:28;25.70;99.00
27544;DHT22;17996;51.056;3.656;2023-07-08T09:25:13;25.80;98.60
27544;DHT22;17996;51.056;3.656;2023-07-08T09:27:46;25.90;98.90
27544;DHT22;17996;51.056;3.656;2023-07-08T09:30:17;26.00;98.30
27544;DHT22;17996;51.056;3.656;2023-07-08T09:32:43;26.10;98.00
27544;DHT22;17996;51.056;3.656;2023-07-08T09:35:21;26.30;97.80
27544;DHT22;17996;51.056;3.656;2023-07-08T09:37:49;26.30;97.60
27544;DHT22;17996;51.056;3.656;2023-07-08T09:40:21;26.40;97.10
27544;DHT22;17996;51.056;3.656;2023-07-08T09:42:52;26.50;97.20
27544;DHT22;17996;51.056;3.656;2023-07-08T09:45:22;26.60;96.70
27544;DHT22;17996;51.056;3.656;2023-07-08T09:47:52;26.70;96.90
27544;DHT22;17996;51.056;3.656;2023-07-08T09:52:48;26.90;97.80
27544;DHT22;17996;51.056;3.656;2023-07-08T09:55:15;26.90;97.20
27544;DHT22;17996;51.056;3.656;2023-07-08T09:57:43;27.00;96.80
27544;DHT22;17996;51.056;3.656;2023-07-08T10:00:34;27.00;96.10
27544;DHT22;17996;51.056;3.656;2023-07-08T10:03:20;27.10;94.60
27544;DHT22;17996;51.056;3.656;2023-07-08T10:05:47;27.20;95.60
27544;DHT22;17996;51.056;3.656;2023-07-08T10:08:19;27.20;94.90
27544;DHT22;17996;51.056;3.656;2023-07-08T10:10:48;27.30;95.10
27544;DHT22;17996;51.056;3.656;2023-07-08T10:13:26;27.30;95.40
27544;DHT22;17996;51.056;3.656;2023-07-08T10:16:12;27.40;95.80
27544;DHT22;17996;51.056;3.656;2023-07-08T10:18:38;27.50;95.50
27544;DHT22;17996;51.056;3.656;2023-07-08T10:26:31;27.70;94.20
27544;DHT22;17996;51.056;3.656;2023-07-08T10:29:12;27.80;93.60
27544;DHT22;17996;51.056;3.656;2023-07-08T10:31:56;27.80;92.60
27544;DHT22;17996;51.056;3.656;2023-07-08T10:37:39;28.00;92.10
27544;DHT22;17996;51.056;3.656;2023-07-08T10:42:56;28.20;92.40
27544;DHT22;17996;51.056;3.656;2023-07-08T10:51:05;28.30;91.60
27544;DHT22;17996;51.056;3.656;2023-07-08T11:07:12;28.70;91.90
27544;DHT22;17996;51.056;3.656;2023-07-08T11:09:54;28.80;91.10
27544;DHT22;17996;51.056;3.656;2023-07-08T11:18:18;29.00;91.40
27544;DHT22;17996;51.056;3.656;2023-07-08T11:23:30;29.00;91.20
27544;DHT22;17996;51.056;3.656;2023-07-08T11:28:53;29.20;90.40
27544;DHT22;17996;51.056;3.656;2023-07-08T11:31:20;29.30;90.50
27544;DHT22;17996;51.056;3.656;2023-07-08T11:33:46;29.40;90.80
27544;DHT22;17996;51.056;3.656;2023-07-08T11:36:13;29.50;91.30
27544;DHT22;17996;51.056;3.656;2023-07-08T11:38:54;29.60;90.30
27544;DHT22;17996;51.056;3.656;2023-07-08T11:41:22;29.70;90.40
27544;DHT22;17996;51.056;3.656;2023-07-08T11:43:58;29.70;90.20
27544;DHT22;17996;51.056;3.656;2023-07-08T11:46:28;29.80;89.90
27544;DHT22;17996;51.056;3.656;2023-07-08T11:49:11;30.00;89.40
27544;DHT22;17996;51.056;3.656;2023-07-08T11:51:40;30.20;89.30
27544;DHT22;17996;51.056;3.656;2023-07-08T11:54:13;30.30;88.80
27544;DHT22;17996;51.056;3.656;2023-07-08T11:59:29;30.80;88.50
27544;DHT22;17996;51.056;3.656;2023-07-08T12:02:18;30.90;87.80
27544;DHT22;17996;51.056;3.656;2023-07-08T12:07:45;31.30;86.50
27544;DHT22;17996;51.056;3.656;2023-07-08T12:12:44;31.70;90.10
27544;DHT22;17996;51.056;3.656;2023-07-08T12:17:38;32.00;87.40
27544;DHT22;17996;51.056;3.656;2023-07-08T12:20:13;32.10;85.60
27544;DHT22;17996;51.056;3.656;2023-07-08T12:22:41;32.20;85.60
27544;DHT22;17996;51.056;3.656;2023-07-08T12:25:19;32.40;86.40
27544;DHT22;17996;51.056;3.656;2023-07-08T12:27:45;32.50;85.40
27544;DHT22;17996;51.056;3.656;2023-07-08T12:30:12;32.50;85.90
27544;DHT22;17996;51.056;3.656;2023-07-08T12:32:39;32.60;87.80
27544;DHT22;17996;51.056;3.656;2023-07-08T12:35:21;32.70;86.60
27544;DHT22;17996;51.056;3.656;2023-07-08T12:37:48;32.90;85.70
27544;DHT22;17996;51.056;3.656;2023-07-08T12:40:14;33.00;86.10
27544;DHT22;17996;51.056;3.656;2023-07-08T12:42:40;33.10;85.60
27544;DHT22;17996;51.056;3.656;2023-07-08T12:45:14;33.30;84.00
27544;DHT22;17996;51.056;3.656;2023-07-08T12:47:40;33.40;83.00
27544;DHT22;17996;51.056;3.656;2023-07-08T12:50:09;33.50;83.70
27544;DHT22;17996;51.056;3.656;2023-07-08T12:52:34;33.70;83.00
27544;DHT22;17996;51.056;3.656;2023-07-08T12:55:00;33.70;82.90
27544;DHT22;17996;51.056;3.656;2023-07-08T12:57:26;33.80;82.60
27544;DHT22;17996;51.056;3.656;2023-07-08T12:59:52;34.10;81.70
27544;DHT22;17996;51.056;3.656;2023-07-08T13:02:20;34.20;81.90
27544;DHT22;17996;51.056;3.656;2023-07-08T13:04:49;34.40;82.30
27544;DHT22;17996;51.056;3.656;2023-07-08T13:07:32;34.30;78.40
27544;DHT22;17996;51.056;3.656;2023-07-08T13:09:59;34.20;79.60
27544;DHT22;17996;51.056;3.656;2023-07-08T13:12:26;34.00;80.10
27544;DHT22;17996;51.056;3.656;2023-07-08T13:14:57;34.00;80.30
27544;DHT22;17996;51.056;3.656;2023-07-08T13:17:24;34.00;79.60
27544;DHT22;17996;51.056;3.656;2023-07-08T13:19:50;34.10;79.30
27544;DHT22;17996;51.056;3.656;2023-07-08T13:22:19;34.10;80.70
27544;DHT22;17996;51.056;3.656;2023-07-08T13:24:46;34.20;81.20
27544;DHT22;17996;51.056;3.656;2023-07-08T13:27:22;34.30;81.00
27544;DHT22;17996;51.056;3.656;2023-07-08T13:29:51;34.50;79.40
27544;DHT22;17996;51.056;3.656;2023-07-08T13:32:17;34.60;80.60
27544;DHT22;17996;51.056;3.656;2023-07-08T13:34:42;34.70;80.20
27544;DHT22;17996;51.056;3.656;2023-07-08T13:37:12;34.70;79.60
27544;DHT22;17996;51.056;3.656;2023-07-08T13:39:42;34.70;78.50
27544;DHT22;17996;51.056;3.656;2023-07-08T13:42:09;34.70;79.00
27544;DHT22;17996;51.056;3.656;2023-07-08T13:44:42;34.70;78.00
27544;DHT22;17996;51.056;3.656;2023-07-08T13:47:38;34.70;77.00
27544;DHT22;17996;51.056;3.656;2023-07-08T13:50:17;34.80;76.60
27544;DHT22;17996;51.056;3.656;2023-07-08T13:52:44;34.70;76.00
27544;DHT22;17996;51.056;3.656;2023-07-08T13:55:18;34.70;76.30
27544;DHT22;17996;51.056;3.656;2023-07-08T13:57:44;34.80;75.10
27544;DHT22;17996;51.056;3.656;2023-07-08T14:00:11;34.90;77.60
27544;DHT22;17996;51.056;3.656;2023-07-08T14:02:38;35.00;77.50
27544;DHT22;17996;51.056;3.656;2023-07-08T14:05:08;35.20;78.70
27544;DHT22;17996;51.056;3.656;2023-07-08T14:07:35;35.30;78.60
27544;DHT22;17996;51.056;3.656;2023-07-08T14:10:04;35.40;77.30
27544;DHT22;17996;51.056;3.656;2023-07-08T14:12:29;35.50;77.20
27544;DHT22;17996;51.056;3.656;2023-07-08T14:14:55;35.50;76.70
27544;DHT22;17996;51.056;3.656;2023-07-08T14:17:23;35.40;76.60
27544;DHT22;17996;51.056;3.656;2023-07-08T14:19:49;35.40;79.60
27544;DHT22;17996;51.056;3.656;2023-07-08T14:22:27;35.50;79.70
27544;DHT22;17996;51.056;3.656;2023-07-08T14:24:53;35.90;80.20
27544;DHT22;17996;51.056;3.656;2023-07-08T14:27:18;36.30;79.50
27544;DHT22;17996;51.056;3.656;2023-07-08T14:29:50;36.80;77.50
27544;DHT22;17996;51.056;3.656;2023-07-08T14:32:22;37.40;75.90
27544;DHT22;17996;51.056;3.656;2023-07-08T14:34:54;38.30;74.60
27544;DHT22;17996;51.056;3.656;2023-07-08T14:37:20;38.80;72.70
27544;DHT22;17996;51.056;3.656;2023-07-08T14:39:47;39.30;72.50
27544;DHT22;17996;51.056;3.656;2023-07-08T14:42:15;39.80;70.70
27544;DHT22;17996;51.056;3.656;2023-07-08T14:44:47;40.40;70.90
27544;DHT22;17996;51.056;3.656;2023-07-08T14:47:16;41.00;70.70
27544;DHT22;17996;51.056;3.656;2023-07-08T14:49:42;41.60;66.00
27544;DHT22;17996;51.056;3.656;2023-07-08T14:52:08;42.00;64.40
27544;DHT22;17996;51.056;3.656;2023-07-08T14:54:34;42.20;63.00
27544;DHT22;17996;51.056;3.656;2023-07-08T14:57:01;42.60;60.80
27544;DHT22;17996;51.056;3.656;2023-07-08T14:59:30;43.00;61.10
27544;DHT22;17996;51.056;3.656;2023-07-08T15:01:58;43.30;61.00
27544;DHT22;17996;51.056;3.656;2023-07-08T15:04:24;43.10;58.00
27544;DHT22;17996;51.056;3.656;2023-07-08T15:06:50;42.80;57.60
27544;DHT22;17996;51.056;3.656;2023-07-08T15:09:17;41.90;57.90
27544;DHT22;17996;51.056;3.656;2023-07-08T15:11:44;41.10;59.80
27544;DHT22;17996;51.056;3.656;2023-07-08T15:14:24;40.50;63.30
27544;DHT22;17996;51.056;3.656;2023-07-08T15:16:51;40.60;60.80
27544;DHT22;17996;51.056;3.656;2023-07-08T15:19:18;40.10;60.50
27544;DHT22;17996;51.056;3.656;2023-07-08T15:21:44;39.50;62.30
27544;DHT22;17996;51.056;3.656;2023-07-08T15:24:12;38.90;62.60
27544;DHT22;17996;51.056;3.656;2023-07-08T15:26:43;38.40;62.90
27544;DHT22;17996;51.056;3.656;2023-07-08T15:29:21;38.30;64.70
27544;DHT22;17996;51.056;3.656;2023-07-08T15:31:47;38.30;64.90
27544;DHT22;17996;51.056;3.656;2023-07-08T15:34:18;38.20;65.40
27544;DHT22;17996;51.056;3.656;2023-07-08T15:36:44;38.60;64.80
27544;DHT22;17996;51.056;3.656;2023-07-08T15:39:10;39.10;63.30
27544;DHT22;17996;51.056;3.656;2023-07-08T15:41:36;39.30;63.40
27544;DHT22;17996;51.056;3.656;2023-07-08T15:44:11;39.40;65.30
27544;DHT22;17996;51.056;3.656;2023-07-08T15:46:41;40.00;66.50
27544;DHT22;17996;51.056;3.656;2023-07-08T15:49:21;40.40;64.10
27544;DHT22;17996;51.056;3.656;2023-07-08T15:51:52;40.20;62.00
27544;DHT22;17996;51.056;3.656;2023-07-08T15:54:19;39.90;64.00
27544;DHT22;17996;51.056;3.656;2023-07-08T15:56:48;40.10;63.50
27544;DHT22;17996;51.056;3.656;2023-07-08T15:59:21;40.60;63.50
27544;DHT22;17996;51.056;3.656;2023-07-08T16:01:49;41.00;61.80
27544;DHT22;17996;51.056;3.656;2023-07-08T16:04:28;41.20;61.80
27544;DHT22;17996;51.056;3.656;2023-07-08T16:06:56;41.70;61.00
27544;DHT22;17996;51.056;3.656;2023-07-08T16:09:22;42.00;61.00
27544;DHT22;17996;51.056;3.656;2023-07-08T16:11:48;42.30;58.10
27544;DHT22;17996;51.056;3.656;2023-07-08T16:14:15;42.20;57.70
27544;DHT22;17996;51.056;3.656;2023-07-08T16:16:42;42.30;57.10
27544;DHT22;17996;51.056;3.656;2023-07-08T16:19:12;42.30;56.80
27544;DHT22;17996;51.056;3.656;2023-07-08T16:21:39;42.20;56.40
27544;DHT22;17996;51.056;3.656;2023-07-08T16:24:05;41.60;56.40
27544;DHT22;17996;51.056;3.656;2023-07-08T16:26:31;41.40;56.40
27544;DHT22;17996;51.056;3.656;2023-07-08T16:28:57;41.40;56.30
27544;DHT22;17996;51.056;3.656;2023-07-08T16:31:25;41.50;57.90
27544;DHT22;17996;51.056;3.656;2023-07-08T16:33:54;41.00;56.40
27544;DHT22;17996;51.056;3.656;2023-07-08T16:36:25;40.30;56.90
27544;DHT22;17996;51.056;3.656;2023-07-08T16:38:52;39.50;57.70
27544;DHT22;17996;51.056;3.656;2023-07-08T16:41:26;38.80;58.70
27544;DHT22;17996;51.056;3.656;2023-07-08T16:43:52;38.20;58.70
27544;DHT22;17996;51.056;3.656;2023-07-08T16:46:19;37.60;59.10
27544;DHT22;17996;51.056;3.656;2023-07-08T16:48:44;37.20;59.80
27544;DHT22;17996;51.056;3.656;2023-07-08T16:51:17;37.00;60.90
27544;DHT22;17996;51.056;3.656;2023-07-08T16:53:44;36.90;61.00